sensor_id;sensor_type;location;lat;lon;timestamp;pressure;altitude;pressure_sealevel;temperature
20733;BMP180;10527;52.124;5.196;2022-10-31T00:01:43;101931.00;;;24.20
20733;BMP180;10527;52.124;5.196;2022-10-31T00:04:10;101919.00;;;24.20
20733;BMP180;10527;52.124;5.196;2022-10-31T00:06:37;101923.00;;;24.20
20733;BMP180;10527;52.124;5.196;2022-10-31T00:09:25;101923.00;;;24.20
20733;BMP180;10527;52.124;5.196;2022-10-31T00:11:54;101942.00;;;24.20
20733;BMP180;10527;52.124;5.196;2022-10-31T00:14:21;101937.00;;;24.10
20733;BMP180;10527;52.124;5.196;2022-10-31T00:16:48;101924.00;;;24.10
20733;BMP180;10527;52.124;5.196;2022-10-31T00:19:14;101936.00;;;24.10
20733;BMP180;10527;52.124;5.196;2022-10-31T00:21:41;101935.00;;;24.10
20733;BMP180;10527;52.124;5.196;2022-10-31T00:24:08;101933.00;;;24.10
20733;BMP180;10527;52.124;5.196;2022-10-31T00:26:35;101931.00;;;24.10
20733;BMP180;10527;52.124;5.196;2022-10-31T00:29:02;101929.00;;;24.10
20733;BMP180;10527;52.124;5.196;2022-10-31T00:31:30;101926.00;;;24.10
20733;BMP180;10527;52.124;5.196;2022-10-31T00:33:58;101930.00;;;24.10
20733;BMP180;10527;52.124;5.196;2022-10-31T00:36:24;101936.00;;;24.10
20733;BMP180;10527;52.124;5.196;2022-10-31T00:38:51;101937.00;;;24.10
20733;BMP180;10527;52.124;5.196;2022-10-31T00:41:19;101932.00;;;24.10
20733;BMP180;10527;52.124;5.196;2022-10-31T00:43:46;101934.00;;;24.10
20733;BMP180;10527;52.124;5.196;2022-10-31T00:46:13;101933.00;;;24.10
20733;BMP180;10527;52.124;5.196;2022-10-31T00:48:40;101939.00;;;24.10
20733;BMP180;10527;52.124;5.196;2022-10-31T00:51:08;101943.00;;;24.10
20733;BMP180;10527;52.124;5.196;2022-10-31T00:53:36;101948.00;;;24.00
20733;BMP180;10527;52.124;5.196;2022-10-31T00:56:03;101941.00;;;24.00
20733;BMP180;10527;52.124;5.196;2022-10-31T00:58:30;101944.00;;;23.90
20733;BMP180;10527;52.124;5.196;2022-10-31T01:01:03;101947.00;;;23.90
20733;BMP180;10527;52.124;5.196;2022-10-31T01:03:33;101945.00;;;23.90
20733;BMP180;10527;52.124;5.196;2022-10-31T01:06:07;101940.00;;;23.90
20733;BMP180;10527;52.124;5.196;2022-10-31T01:08:37;101952.00;;;23.90
20733;BMP180;10527;52.124;5.196;2022-10-31T01:11:11;101939.00;;;23.90
20733;BMP180;10527;52.124;5.196;2022-10-31T01:13:38;101935.00;;;23.90
20733;BMP180;10527;52.124;5.196;2022-10-31T01:16:13;101934.00;;;23.90
20733;BMP180;10527;52.124;5.196;2022-10-31T01:18:42;101928.00;;;23.90
20733;BMP180;10527;52.124;5.196;2022-10-31T01:21:19;101909.00;;;23.90
20733;BMP180;10527;52.124;5.196;2022-10-31T01:23:47;101914.00;;;23.80
20733;BMP180;10527;52.124;5.196;2022-10-31T01:26:19;101917.00;;;23.80
20733;BMP180;10527;52.124;5.196;2022-10-31T01:28:54;101910.00;;;23.80
20733;BMP180;10527;52.124;5.196;2022-10-31T01:31:26;101919.00;;;23.80
20733;BMP180;10527;52.124;5.196;2022-10-31T01:33:57;101913.00;;;23.80
20733;BMP180;10527;52.124;5.196;2022-10-31T01:36:31;101915.00;;;23.80
20733;BMP180;10527;52.124;5.196;2022-10-31T01:39:04;101914.00;;;23.70
20733;BMP180;10527;52.124;5.196;2022-10-31T01:41:35;101914.00;;;23.70
20733;BMP180;10527;52.124;5.196;2022-10-31T01:54:46;101903.00;;;23.60
20733;BMP180;10527;52.124;5.196;2022-10-31T01:57:17;101895.00;;;23.50
20733;BMP180;10527;52.124;5.196;2022-10-31T01:59:49;101892.00;;;23.40
20733;BMP180;10527;52.124;5.196;2022-10-31T02:02:18;101893.00;;;23.40
20733;BMP180;10527;52.124;5.196;2022-10-31T02:04:47;101899.00;;;23.40
20733;BMP180;10527;52.124;5.196;2022-10-31T02:07:21;101911.00;;;23.40
20733;BMP180;10527;52.124;5.196;2022-10-31T02:09:53;101891.00;;;23.40
20733;BMP180;10527;52.124;5.196;2022-10-31T02:12:22;101908.00;;;23.30
20733;BMP180;10527;52.124;5.196;2022-10-31T02:14:49;101903.00;;;23.30
20733;BMP180;10527;52.124;5.196;2022-10-31T02:17:15;101886.00;;;23.30
20733;BMP180;10527;52.124;5.196;2022-10-31T02:23:26;101906.00;;;23.20
20733;BMP180;10527;52.124;5.196;2022-10-31T02:26:30;101892.00;;;23.20
20733;BMP180;10527;52.124;5.196;2022-10-31T02:32:24;101896.00;;;23.10
20733;BMP180;10527;52.124;5.196;2022-10-31T02:34:58;101898.00;;;23.10
20733;BMP180;10527;52.124;5.196;2022-10-31T02:43:40;101895.00;;;23.00
20733;BMP180;10527;52.124;5.196;2022-10-31T02:46:24;101899.00;;;22.90
20733;BMP180;10527;52.124;5.196;2022-10-31T02:48:57;101899.00;;;22.90
20733;BMP180;10527;52.124;5.196;2022-10-31T02:51:27;101902.00;;;22.90
20733;BMP180;10527;52.124;5.196;2022-10-31T02:53:54;101905.00;;;22.80
20733;BMP180;10527;52.124;5.196;2022-10-31T02:56:21;101910.00;;;22.80
20733;BMP180;10527;52.124;5.196;2022-10-31T02:59:05;101895.00;;;22.80
20733;BMP180;10527;52.124;5.196;2022-10-31T03:02:20;101898.00;;;22.80
20733;BMP180;10527;52.124;5.196;2022-10-31T03:11:23;101911.00;;;22.60
20733;BMP180;10527;52.124;5.196;2022-10-31T03:14:20;101902.00;;;22.60
20733;BMP180;10527;52.124;5.196;2022-10-31T03:16:52;101907.00;;;22.60
20733;BMP180;10527;52.124;5.196;2022-10-31T03:19:29;101907.00;;;22.60
20733;BMP180;10527;52.124;5.196;2022-10-31T03:22:16;101899.00;;;22.60
20733;BMP180;10527;52.124;5.196;2022-10-31T03:24:46;101898.00;;;22.50
20733;BMP180;10527;52.124;5.196;2022-10-31T03:27:23;101909.00;;;22.50
20733;BMP180;10527;52.124;5.196;2022-10-31T03:29:55;101897.00;;;22.50
20733;BMP180;10527;52.124;5.196;2022-10-31T03:32:31;101906.00;;;22.50
20733;BMP180;10527;52.124;5.196;2022-10-31T03:35:04;101895.00;;;22.40
20733;BMP180;10527;52.124;5.196;2022-10-31T03:37:35;101916.00;;;22.40
20733;BMP180;10527;52.124;5.196;2022-10-31T03:40:06;101907.00;;;22.40
20733;BMP180;10527;52.124;5.196;2022-10-31T03:42:40;101910.00;;;22.40
20733;BMP180;10527;52.124;5.196;2022-10-31T03:45:17;101899.00;;;22.40
20733;BMP180;10527;52.124;5.196;2022-10-31T03:47:48;101901.00;;;22.30
20733;BMP180;10527;52.124;5.196;2022-10-31T03:50:16;101909.00;;;22.30
20733;BMP180;10527;52.124;5.196;2022-10-31T03:53:05;101902.00;;;22.30
20733;BMP180;10527;52.124;5.196;2022-10-31T03:55:52;101906.00;;;22.30
20733;BMP180;10527;52.124;5.196;2022-10-31T03:58:37;101909.00;;;22.30
20733;BMP180;10527;52.124;5.196;2022-10-31T04:01:15;101910.00;;;22.20
20733;BMP180;10527;52.124;5.196;2022-10-31T04:03:44;101911.00;;;22.20
20733;BMP180;10527;52.124;5.196;2022-10-31T04:06:14;101910.00;;;22.20
20733;BMP180;10527;52.124;5.196;2022-10-31T04:08:53;101910.00;;;22.10
20733;BMP180;10527;52.124;5.196;2022-10-31T04:11:29;101900.00;;;22.10
20733;BMP180;10527;52.124;5.196;2022-10-31T04:14:00;101914.00;;;22.10
20733;BMP180;10527;52.124;5.196;2022-10-31T04:16:28;101918.00;;;22.10
20733;BMP180;10527;52.124;5.196;2022-10-31T04:18:55;101912.00;;;22.10
20733;BMP180;10527;52.124;5.196;2022-10-31T04:21:31;101901.00;;;22.00
20733;BMP180;10527;52.124;5.196;2022-10-31T04:23:59;101906.00;;;22.00
20733;BMP180;10527;52.124;5.196;2022-10-31T04:26:26;101902.00;;;22.00
20733;BMP180;10527;52.124;5.196;2022-10-31T04:28:52;101899.00;;;21.90
20733;BMP180;10527;52.124;5.196;2022-10-31T04:31:32;101897.00;;;21.90
20733;BMP180;10527;52.124;5.196;2022-10-31T04:34:01;101903.00;;;21.90
20733;BMP180;10527;52.124;5.196;2022-10-31T04:36:28;101913.00;;;21.90
20733;BMP180;10527;52.124;5.196;2022-10-31T04:38:55;101902.00;;;21.90
20733;BMP180;10527;52.124;5.196;2022-10-31T04:41:22;101902.00;;;21.90
20733;BMP180;10527;52.124;5.196;2022-10-31T04:43:48;101901.00;;;21.80
20733;BMP180;10527;52.124;5.196;2022-10-31T04:46:15;101894.00;;;21.80
20733;BMP180;10527;52.124;5.196;2022-10-31T04:48:43;101890.00;;;21.80
20733;BMP180;10527;52.124;5.196;2022-10-31T04:51:10;101894.00;;;21.70
20733;BMP180;10527;52.124;5.196;2022-10-31T04:53:37;101898.00;;;21.70
20733;BMP180;10527;52.124;5.196;2022-10-31T04:56:04;101897.00;;;21.70
20733;BMP180;10527;52.124;5.196;2022-10-31T04:58:31;101892.00;;;21.70
20733;BMP180;10527;52.124;5.196;2022-10-31T05:01:03;101895.00;;;21.70
20733;BMP180;10527;52.124;5.196;2022-10-31T05:03:31;101898.00;;;21.60
20733;BMP180;10527;52.124;5.196;2022-10-31T05:05:58;101902.00;;;21.60
20733;BMP180;10527;52.124;5.196;2022-10-31T05:08:24;101893.00;;;21.60
20733;BMP180;10527;52.124;5.196;2022-10-31T05:10:52;101895.00;;;21.60
20733;BMP180;10527;52.124;5.196;2022-10-31T05:13:19;101891.00;;;21.60
20733;BMP180;10527;52.124;5.196;2022-10-31T05:15:47;101904.00;;;21.60
20733;BMP180;10527;52.124;5.196;2022-10-31T05:18:13;101890.00;;;21.60
20733;BMP180;10527;52.124;5.196;2022-10-31T05:20:40;101886.00;;;21.60
20733;BMP180;10527;52.124;5.196;2022-10-31T05:23:12;101887.00;;;21.60
20733;BMP180;10527;52.124;5.196;2022-10-31T05:25:40;101889.00;;;21.50
20733;BMP180;10527;52.124;5.196;2022-10-31T05:28:08;101891.00;;;21.50
20733;BMP180;10527;52.124;5.196;2022-10-31T05:30:35;101876.00;;;21.50
20733;BMP180;10527;52.124;5.196;2022-10-31T05:33:02;101876.00;;;21.40
20733;BMP180;10527;52.124;5.196;2022-10-31T05:35:32;101873.00;;;21.40
20733;BMP180;10527;52.124;5.196;2022-10-31T05:37:59;101875.00;;;21.40
20733;BMP180;10527;52.124;5.196;2022-10-31T05:40:28;101888.00;;;21.40
20733;BMP180;10527;52.124;5.196;2022-10-31T05:42:56;101885.00;;;21.40
20733;BMP180;10527;52.124;5.196;2022-10-31T05:45:25;101870.00;;;21.30
20733;BMP180;10527;52.124;5.196;2022-10-31T05:48:01;101871.00;;;21.30
20733;BMP180;10527;52.124;5.196;2022-10-31T05:50:31;101877.00;;;21.30
20733;BMP180;10527;52.124;5.196;2022-10-31T05:53:05;101865.00;;;21.20
20733;BMP180;10527;52.124;5.196;2022-10-31T05:55:32;101862.00;;;21.20
20733;BMP180;10527;52.124;5.196;2022-10-31T05:57:59;101860.00;;;21.20
20733;BMP180;10527;52.124;5.196;2022-10-31T06:00:28;101858.00;;;21.20
20733;BMP180;10527;52.124;5.196;2022-10-31T06:03:04;101864.00;;;21.20
20733;BMP180;10527;52.124;5.196;2022-10-31T06:05:35;101864.00;;;21.20
20733;BMP180;10527;52.124;5.196;2022-10-31T06:08:01;101851.00;;;21.20
20733;BMP180;10527;52.124;5.196;2022-10-31T06:10:29;101855.00;;;21.10
20733;BMP180;10527;52.124;5.196;2022-10-31T06:12:56;101853.00;;;21.10
20733;BMP180;10527;52.124;5.196;2022-10-31T06:15:23;101858.00;;;21.10
20733;BMP180;10527;52.124;5.196;2022-10-31T06:18:00;101869.00;;;21.10
20733;BMP180;10527;52.124;5.196;2022-10-31T06:20:29;101845.00;;;21.10
20733;BMP180;10527;52.124;5.196;2022-10-31T06:22:56;101864.00;;;21.10
20733;BMP180;10527;52.124;5.196;2022-10-31T06:25:27;101865.00;;;21.00
20733;BMP180;10527;52.124;5.196;2022-10-31T06:27:54;101869.00;;;21.00
20733;BMP180;10527;52.124;5.196;2022-10-31T06:30:21;101870.00;;;21.00
20733;BMP180;10527;52.124;5.196;2022-10-31T06:32:48;101869.00;;;21.00
20733;BMP180;10527;52.124;5.196;2022-10-31T06:35:16;101863.00;;;20.90
20733;BMP180;10527;52.124;5.196;2022-10-31T06:37:50;101875.00;;;20.90
20733;BMP180;10527;52.124;5.196;2022-10-31T06:40:17;101872.00;;;20.90
20733;BMP180;10527;52.124;5.196;2022-10-31T06:42:44;101876.00;;;20.90
20733;BMP180;10527;52.124;5.196;2022-10-31T06:45:10;101874.00;;;20.90
20733;BMP180;10527;52.124;5.196;2022-10-31T06:47:37;101879.00;;;20.90
20733;BMP180;10527;52.124;5.196;2022-10-31T06:50:24;101881.00;;;20.90
20733;BMP180;10527;52.124;5.196;2022-10-31T06:52:58;101870.00;;;20.90
20733;BMP180;10527;52.124;5.196;2022-10-31T06:55:26;101872.00;;;20.90
20733;BMP180;10527;52.124;5.196;2022-10-31T06:57:55;101873.00;;;20.90
20733;BMP180;10527;52.124;5.196;2022-10-31T07:00:30;101876.00;;;20.90
20733;BMP180;10527;52.124;5.196;2022-10-31T07:03:03;101876.00;;;20.90
20733;BMP180;10527;52.124;5.196;2022-10-31T07:05:31;101874.00;;;21.00
20733;BMP180;10527;52.124;5.196;2022-10-31T07:08:03;101874.00;;;21.00
20733;BMP180;10527;52.124;5.196;2022-10-31T07:10:32;101879.00;;;21.00
20733;BMP180;10527;52.124;5.196;2022-10-31T07:13:12;101884.00;;;21.10
20733;BMP180;10527;52.124;5.196;2022-10-31T07:15:44;101879.00;;;21.10
20733;BMP180;10527;52.124;5.196;2022-10-31T07:18:13;101875.00;;;21.10
20733;BMP180;10527;52.124;5.196;2022-10-31T07:20:40;101879.00;;;21.20
20733;BMP180;10527;52.124;5.196;2022-10-31T07:23:09;101874.00;;;21.20
20733;BMP180;10527;52.124;5.196;2022-10-31T07:25:57;101881.00;;;21.20
20733;BMP180;10527;52.124;5.196;2022-10-31T07:28:26;101884.00;;;21.30
20733;BMP180;10527;52.124;5.196;2022-10-31T07:30:57;101889.00;;;21.30
20733;BMP180;10527;52.124;5.196;2022-10-31T07:33:24;101894.00;;;21.40
20733;BMP180;10527;52.124;5.196;2022-10-31T07:35:54;101883.00;;;21.40
20733;BMP180;10527;52.124;5.196;2022-10-31T07:38:21;101876.00;;;21.50
20733;BMP180;10527;52.124;5.196;2022-10-31T07:40:59;101886.00;;;21.50
20733;BMP180;10527;52.124;5.196;2022-10-31T07:43:25;101898.00;;;21.50
20733;BMP180;10527;52.124;5.196;2022-10-31T07:45:56;101890.00;;;21.60
20733;BMP180;10527;52.124;5.196;2022-10-31T07:48:23;101892.00;;;21.60
20733;BMP180;10527;52.124;5.196;2022-10-31T07:50:49;101893.00;;;21.60
20733;BMP180;10527;52.124;5.196;2022-10-31T07:53:16;101895.00;;;21.60
20733;BMP180;10527;52.124;5.196;2022-10-31T07:55:43;101899.00;;;21.70
20733;BMP180;10527;52.124;5.196;2022-10-31T07:58:15;101902.00;;;21.70
20733;BMP180;10527;52.124;5.196;2022-10-31T08:00:45;101910.00;;;21.70
20733;BMP180;10527;52.124;5.196;2022-10-31T08:03:16;101911.00;;;21.80
20733;BMP180;10527;52.124;5.196;2022-10-31T08:05:47;101909.00;;;21.80
20733;BMP180;10527;52.124;5.196;2022-10-31T08:08:15;101907.00;;;21.80
20733;BMP180;10527;52.124;5.196;2022-10-31T08:10:42;101911.00;;;21.80
20733;BMP180;10527;52.124;5.196;2022-10-31T08:13:12;101903.00;;;21.90
20733;BMP180;10527;52.124;5.196;2022-10-31T08:15:40;101908.00;;;21.90
20733;BMP180;10527;52.124;5.196;2022-10-31T08:18:13;101914.00;;;22.00
20733;BMP180;10527;52.124;5.196;2022-10-31T08:20:42;101908.00;;;22.00
20733;BMP180;10527;52.124;5.196;2022-10-31T08:23:11;101916.00;;;22.10
20733;BMP180;10527;52.124;5.196;2022-10-31T08:25:39;101904.00;;;22.10
20733;BMP180;10527;52.124;5.196;2022-10-31T08:28:09;101902.00;;;22.10
20733;BMP180;10527;52.124;5.196;2022-10-31T08:30:37;101897.00;;;22.20
20733;BMP180;10527;52.124;5.196;2022-10-31T08:33:12;101904.00;;;22.20
20733;BMP180;10527;52.124;5.196;2022-10-31T08:35:40;101901.00;;;22.20
20733;BMP180;10527;52.124;5.196;2022-10-31T08:38:10;101902.00;;;22.30
20733;BMP180;10527;52.124;5.196;2022-10-31T08:40:38;101897.00;;;22.30
20733;BMP180;10527;52.124;5.196;2022-10-31T08:43:14;101900.00;;;22.40
20733;BMP180;10527;52.124;5.196;2022-10-31T08:45:43;101892.00;;;22.40
20733;BMP180;10527;52.124;5.196;2022-10-31T08:48:13;101893.00;;;22.50
20733;BMP180;10527;52.124;5.196;2022-10-31T08:50:43;101897.00;;;22.50
20733;BMP180;10527;52.124;5.196;2022-10-31T08:53:17;101890.00;;;22.60
20733;BMP180;10527;52.124;5.196;2022-10-31T08:55:45;101882.00;;;22.60
20733;BMP180;10527;52.124;5.196;2022-10-31T08:58:16;101875.00;;;22.60
20733;BMP180;10527;52.124;5.196;2022-10-31T09:00:54;101865.00;;;22.70
20733;BMP180;10527;52.124;5.196;2022-10-31T09:03:25;101869.00;;;22.70
20733;BMP180;10527;52.124;5.196;2022-10-31T09:06:00;101872.00;;;22.70
20733;BMP180;10527;52.124;5.196;2022-10-31T09:08:30;101873.00;;;22.80
20733;BMP180;10527;52.124;5.196;2022-10-31T09:10:59;101878.00;;;22.80
20733;BMP180;10527;52.124;5.196;2022-10-31T09:13:26;101863.00;;;22.80
20733;BMP180;10527;52.124;5.196;2022-10-31T09:15:56;101857.00;;;22.90
20733;BMP180;10527;52.124;5.196;2022-10-31T09:18:25;101845.00;;;23.00
20733;BMP180;10527;52.124;5.196;2022-10-31T09:21:01;101844.00;;;23.20
20733;BMP180;10527;52.124;5.196;2022-10-31T09:23:28;101839.00;;;23.30
20733;BMP180;10527;52.124;5.196;2022-10-31T09:25:55;101845.00;;;23.50
20733;BMP180;10527;52.124;5.196;2022-10-31T09:28:23;101838.00;;;23.60
20733;BMP180;10527;52.124;5.196;2022-10-31T09:30:53;101832.00;;;23.80
20733;BMP180;10527;52.124;5.196;2022-10-31T09:33:36;101834.00;;;23.90
20733;BMP180;10527;52.124;5.196;2022-10-31T09:36:03;101825.00;;;23.90
20733;BMP180;10527;52.124;5.196;2022-10-31T09:38:30;101829.00;;;24.00
20733;BMP180;10527;52.124;5.196;2022-10-31T09:41:08;101840.00;;;24.10
20733;BMP180;10527;52.124;5.196;2022-10-31T09:52:45;101827.00;;;24.10
20733;BMP180;10527;52.124;5.196;2022-10-31T09:55:38;101827.00;;;24.10
20733;BMP180;10527;52.124;5.196;2022-10-31T09:58:20;101823.00;;;24.10
20733;BMP180;10527;52.124;5.196;2022-10-31T10:00:51;101820.00;;;24.10
20733;BMP180;10527;52.124;5.196;2022-10-31T10:03:39;101815.00;;;24.10
20733;BMP180;10527;52.124;5.196;2022-10-31T10:06:18;101817.00;;;24.10
20733;BMP180;10527;52.124;5.196;2022-10-31T10:08:45;101817.00;;;24.10
20733;BMP180;10527;52.124;5.196;2022-10-31T10:11:28;101812.00;;;24.10
20733;BMP180;10527;52.124;5.196;2022-10-31T10:20:18;101802.00;;;24.10
20733;BMP180;10527;52.124;5.196;2022-10-31T10:25:40;101796.00;;;24.10
20733;BMP180;10527;52.124;5.196;2022-10-31T10:28:29;101796.00;;;24.10
20733;BMP180;10527;52.124;5.196;2022-10-31T10:31:06;101787.00;;;24.10
20733;BMP180;10527;52.124;5.196;2022-10-31T10:33:41;101799.00;;;24.20
20733;BMP180;10527;52.124;5.196;2022-10-31T10:36:22;101796.00;;;24.20
20733;BMP180;10527;52.124;5.196;2022-10-31T10:38:57;101789.00;;;24.20
20733;BMP180;10527;52.124;5.196;2022-10-31T10:41:32;101797.00;;;24.20
20733;BMP180;10527;52.124;5.196;2022-10-31T10:44:02;101789.00;;;24.30
20733;BMP180;10527;52.124;5.196;2022-10-31T10:46:43;101779.00;;;24.30
20733;BMP180;10527;52.124;5.196;2022-10-31T10:52:38;101748.00;;;24.40
20733;BMP180;10527;52.124;5.196;2022-10-31T10:58:00;101732.00;;;24.50
20733;BMP180;10527;52.124;5.196;2022-10-31T11:00:38;101733.00;;;24.60
20733;BMP180;10527;52.124;5.196;2022-10-31T11:03:08;101729.00;;;24.60
20733;BMP180;10527;52.124;5.196;2022-10-31T11:05:53;101722.00;;;24.70
20733;BMP180;10527;52.124;5.196;2022-10-31T11:08:35;101704.00;;;24.80
20733;BMP180;10527;52.124;5.196;2022-10-31T11:11:23;101694.00;;;24.80
20733;BMP180;10527;52.124;5.196;2022-10-31T11:14:24;101699.00;;;24.90
20733;BMP180;10527;52.124;5.196;2022-10-31T11:17:30;101701.00;;;25.00
20733;BMP180;10527;52.124;5.196;2022-10-31T11:22:48;101705.00;;;25.00
20733;BMP180;10527;52.124;5.196;2022-10-31T11:25:28;101714.00;;;25.00
20733;BMP180;10527;52.124;5.196;2022-10-31T11:28:08;101710.00;;;25.10
20733;BMP180;10527;52.124;5.196;2022-10-31T11:30:45;101703.00;;;25.10
20733;BMP180;10527;52.124;5.196;2022-10-31T11:33:36;101699.00;;;25.20
20733;BMP180;10527;52.124;5.196;2022-10-31T11:36:25;101691.00;;;25.20
20733;BMP180;10527;52.124;5.196;2022-10-31T11:38:53;101686.00;;;25.20
20733;BMP180;10527;52.124;5.196;2022-10-31T11:41:34;101682.00;;;25.30
20733;BMP180;10527;52.124;5.196;2022-10-31T11:44:27;101681.00;;;25.40
20733;BMP180;10527;52.124;5.196;2022-10-31T11:46:59;101681.00;;;25.40
20733;BMP180;10527;52.124;5.196;2022-10-31T11:49:55;101664.00;;;25.40
20733;BMP180;10527;52.124;5.196;2022-10-31T11:52:30;101653.00;;;25.40
20733;BMP180;10527;52.124;5.196;2022-10-31T11:55:17;101628.00;;;25.40
20733;BMP180;10527;52.124;5.196;2022-10-31T11:57:49;101604.00;;;25.40
20733;BMP180;10527;52.124;5.196;2022-10-31T12:00:37;101619.00;;;25.50
20733;BMP180;10527;52.124;5.196;2022-10-31T12:05:58;101618.00;;;25.50
20733;BMP180;10527;52.124;5.196;2022-10-31T12:08:31;101614.00;;;25.50
20733;BMP180;10527;52.124;5.196;2022-10-31T12:11:39;101609.00;;;25.50
20733;BMP180;10527;52.124;5.196;2022-10-31T12:17:23;101602.00;;;25.60
20733;BMP180;10527;52.124;5.196;2022-10-31T12:23:16;101597.00;;;25.60
20733;BMP180;10527;52.124;5.196;2022-10-31T12:26:20;101575.00;;;25.60
20733;BMP180;10527;52.124;5.196;2022-10-31T12:29:29;101568.00;;;25.60
20733;BMP180;10527;52.124;5.196;2022-10-31T12:32:48;101545.00;;;25.70
20733;BMP180;10527;52.124;5.196;2022-10-31T12:41:39;101549.00;;;25.70
20733;BMP180;10527;52.124;5.196;2022-10-31T12:57:11;101514.00;;;25.90
20733;BMP180;10527;52.124;5.196;2022-10-31T12:59:50;101512.00;;;25.90
20733;BMP180;10527;52.124;5.196;2022-10-31T13:02:43;101505.00;;;26.00
20733;BMP180;10527;52.124;5.196;2022-10-31T13:08:35;101490.00;;;26.00
20733;BMP180;10527;52.124;5.196;2022-10-31T13:11:28;101475.00;;;26.00
20733;BMP180;10527;52.124;5.196;2022-10-31T13:16:56;101467.00;;;26.00
20733;BMP180;10527;52.124;5.196;2022-10-31T13:19:43;101470.00;;;26.10
20733;BMP180;10527;52.124;5.196;2022-10-31T13:22:26;101461.00;;;26.10
20733;BMP180;10527;52.124;5.196;2022-10-31T13:30:26;101449.00;;;26.10
20733;BMP180;10527;52.124;5.196;2022-10-31T13:33:23;101446.00;;;26.10
20733;BMP180;10527;52.124;5.196;2022-10-31T13:36:26;101434.00;;;26.10
20733;BMP180;10527;52.124;5.196;2022-10-31T13:42:03;101427.00;;;26.10
20733;BMP180;10527;52.124;5.196;2022-10-31T13:44:36;101416.00;;;26.10
20733;BMP180;10527;52.124;5.196;2022-10-31T13:47:26;101420.00;;;26.10
20733;BMP180;10527;52.124;5.196;2022-10-31T13:50:25;101407.00;;;26.10
20733;BMP180;10527;52.124;5.196;2022-10-31T13:53:35;101400.00;;;26.10
20733;BMP180;10527;52.124;5.196;2022-10-31T13:58:54;101395.00;;;26.20
20733;BMP180;10527;52.124;5.196;2022-10-31T14:01:23;101389.00;;;26.20
20733;BMP180;10527;52.124;5.196;2022-10-31T14:04:14;101382.00;;;26.20
20733;BMP180;10527;52.124;5.196;2022-10-31T14:06:54;101381.00;;;26.20
20733;BMP180;10527;52.124;5.196;2022-10-31T14:09:39;101379.00;;;26.20
20733;BMP180;10527;52.124;5.196;2022-10-31T14:14:59;101367.00;;;26.10
20733;BMP180;10527;52.124;5.196;2022-10-31T14:17:46;101351.00;;;26.10
20733;BMP180;10527;52.124;5.196;2022-10-31T14:22:57;101356.00;;;26.20
20733;BMP180;10527;52.124;5.196;2022-10-31T14:25:36;101349.00;;;26.20
20733;BMP180;10527;52.124;5.196;2022-10-31T14:28:31;101346.00;;;26.20
20733;BMP180;10527;52.124;5.196;2022-10-31T14:31:00;101336.00;;;26.20
20733;BMP180;10527;52.124;5.196;2022-10-31T14:33:29;101338.00;;;26.20
20733;BMP180;10527;52.124;5.196;2022-10-31T14:36:09;101333.00;;;26.20
20733;BMP180;10527;52.124;5.196;2022-10-31T14:38:57;101327.00;;;26.20
20733;BMP180;10527;52.124;5.196;2022-10-31T14:47:39;101306.00;;;26.20
20733;BMP180;10527;52.124;5.196;2022-10-31T14:50:56;101312.00;;;26.20
20733;BMP180;10527;52.124;5.196;2022-10-31T14:53:35;101313.00;;;26.20
20733;BMP180;10527;52.124;5.196;2022-10-31T14:56:10;101305.00;;;26.20
20733;BMP180;10527;52.124;5.196;2022-10-31T14:58:42;101305.00;;;26.20
20733;BMP180;10527;52.124;5.196;2022-10-31T15:01:28;101306.00;;;26.20
20733;BMP180;10527;52.124;5.196;2022-10-31T15:04:07;101299.00;;;26.20
20733;BMP180;10527;52.124;5.196;2022-10-31T15:07:20;101293.00;;;26.20
20733;BMP180;10527;52.124;5.196;2022-10-31T15:10:27;101282.00;;;26.20
20733;BMP180;10527;52.124;5.196;2022-10-31T15:13:28;101279.00;;;26.20
20733;BMP180;10527;52.124;5.196;2022-10-31T15:15:55;101272.00;;;26.20
20733;BMP180;10527;52.124;5.196;2022-10-31T15:18:27;101271.00;;;26.20
20733;BMP180;10527;52.124;5.196;2022-10-31T15:20:56;101264.00;;;26.20
20733;BMP180;10527;52.124;5.196;2022-10-31T15:23:26;101268.00;;;26.20
20733;BMP180;10527;52.124;5.196;2022-10-31T15:26:03;101245.00;;;26.20
20733;BMP180;10527;52.124;5.196;2022-10-31T15:28:42;101249.00;;;26.20
20733;BMP180;10527;52.124;5.196;2022-10-31T15:31:16;101236.00;;;26.20
20733;BMP180;10527;52.124;5.196;2022-10-31T15:33:59;101237.00;;;26.10
20733;BMP180;10527;52.124;5.196;2022-10-31T15:36:27;101234.00;;;26.10
20733;BMP180;10527;52.124;5.196;2022-10-31T15:38:57;101231.00;;;26.10
20733;BMP180;10527;52.124;5.196;2022-10-31T15:41:51;101229.00;;;26.10
20733;BMP180;10527;52.124;5.196;2022-10-31T15:44:26;101219.00;;;26.00
20733;BMP180;10527;52.124;5.196;2022-10-31T15:47:04;101206.00;;;26.00
20733;BMP180;10527;52.124;5.196;2022-10-31T15:49:39;101198.00;;;26.00
20733;BMP180;10527;52.124;5.196;2022-10-31T15:54:51;101190.00;;;25.90
20733;BMP180;10527;52.124;5.196;2022-10-31T15:57:20;101195.00;;;25.90
20733;BMP180;10527;52.124;5.196;2022-10-31T15:59:48;101194.00;;;25.90
20733;BMP180;10527;52.124;5.196;2022-10-31T16:02:24;101193.00;;;25.90
20733;BMP180;10527;52.124;5.196;2022-10-31T16:05:00;101182.00;;;25.90
20733;BMP180;10527;52.124;5.196;2022-10-31T16:07:29;101182.00;;;25.90
20733;BMP180;10527;52.124;5.196;2022-10-31T16:10:02;101174.00;;;25.90
20733;BMP180;10527;52.124;5.196;2022-10-31T16:12:37;101168.00;;;25.90
20733;BMP180;10527;52.124;5.196;2022-10-31T16:15:17;101171.00;;;25.80
20733;BMP180;10527;52.124;5.196;2022-10-31T16:17:49;101173.00;;;25.80
20733;BMP180;10527;52.124;5.196;2022-10-31T16:20:29;101167.00;;;25.80
20733;BMP180;10527;52.124;5.196;2022-10-31T16:22:59;101166.00;;;25.80
20733;BMP180;10527;52.124;5.196;2022-10-31T16:25:38;101181.00;;;25.80
20733;BMP180;10527;52.124;5.196;2022-10-31T16:28:21;101170.00;;;25.80
20733;BMP180;10527;52.124;5.196;2022-10-31T16:30:54;101167.00;;;25.70
20733;BMP180;10527;52.124;5.196;2022-10-31T16:33:32;101170.00;;;25.80
20733;BMP180;10527;52.124;5.196;2022-10-31T16:36:00;101167.00;;;25.70